Time;durP1;ratioP1;P1;durP2;ratioP2;P2;SDS_P1;SDS_P2;PMS_P1;PMS_P2;Temp;Humidity;BMP_temperature;BMP_pressure;BME280_temperature;BME280_humidity;BME280_pressure;Samples;Min_cycle;Max_cycle;Signal;HPM_P1;HPM_P2
2022/10/31 00:01:33;;;;;;;1999.90;999.90;;;;;;;10.29;100.00;98548.44;5105587;28;20080;-75
2022/10/31 00:03:59;;;;;;;1999.90;999.90;;;;;;;10.32;100.00;98556.06;5096216;28;20040;-74
2022/10/31 00:06:24;;;;;;;1999.90;999.90;;;;;;;10.29;100.00;98547.59;5101885;28;20104;-75
2022/10/31 00:08:55;;;;;;;1999.90;999.90;;;;;;;10.24;100.00;98551.19;5096250;28;20091;-75
2022/10/31 00:11:20;;;;;;;1999.90;999.90;;;;;;;10.17;100.00;98545.19;5098855;28;20035;-77
2022/10/31 00:13:46;;;;;;;1999.90;999.90;;;;;;;10.12;100.00;98545.97;5083515;28;20032;-74
2022/10/31 00:16:16;;;;;;;1999.90;999.90;;;;;;;10.14;100.00;98543.84;5105336;28;20035;-74
2022/10/31 00:18:42;;;;;;;1999.90;999.90;;;;;;;10.13;100.00;98549.53;5099571;28;20019;-74
2022/10/31 00:21:07;;;;;;;1999.90;999.90;;;;;;;10.14;100.00;98548.47;5111494;28;20480;-74
2022/10/31 00:23:33;;;;;;;1999.90;999.90;;;;;;;10.04;100.00;98541.09;5111171;28;20472;-74
2022/10/31 00:26:02;;;;;;;1999.90;999.90;;;;;;;10.08;100.00;98541.38;5094394;28;20031;-74
2022/10/31 00:28:30;;;;;;;1999.90;999.90;;;;;;;10.13;100.00;98534.00;5112408;28;20110;-74
2022/10/31 00:30:58;;;;;;;1999.90;999.90;;;;;;;10.12;100.00;98540.50;5112314;28;20031;-74
2022/10/31 00:33:23;;;;;;;1999.90;999.90;;;;;;;10.12;100.00;98534.22;5110756;28;20020;-75
2022/10/31 00:35:50;;;;;;;1999.90;999.90;;;;;;;10.15;100.00;98541.91;5110739;28;20085;-74
2022/10/31 00:38:16;;;;;;;1999.90;999.90;;;;;;;10.11;100.00;98543.53;5111595;28;20027;-73
2022/10/31 00:40:41;;;;;;;1999.90;999.90;;;;;;;10.04;100.00;98545.75;5111976;28;20533;-74
2022/10/31 00:43:06;;;;;;;1999.90;999.90;;;;;;;10.07;100.00;98542.44;5111616;28;20132;-74
2022/10/31 00:45:32;;;;;;;1999.90;999.90;;;;;;;10.05;100.00;98553.69;5111590;28;20039;-74
2022/10/31 00:47:57;;;;;;;1999.90;999.90;;;;;;;9.96;100.00;98540.84;5111537;28;20028;-74
2022/10/31 00:50:22;;;;;;;1999.90;999.90;;;;;;;9.90;100.00;98536.50;5111618;28;20065;-74
2022/10/31 00:52:47;;;;;;;1999.90;999.90;;;;;;;9.79;100.00;98541.16;5093636;28;20034;-74
2022/10/31 00:55:13;;;;;;;1999.90;999.90;;;;;;;9.75;100.00;98547.41;5093087;28;20016;-74
2022/10/31 00:57:38;;;;;;;1999.90;999.90;;;;;;;9.77;100.00;98539.78;5111594;28;20031;-74
2022/10/31 01:00:04;;;;;;;1999.90;999.90;;;;;;;9.76;100.00;98538.13;5111328;28;20035;-74
2022/10/31 01:02:29;;;;;;;1999.90;999.90;;;;;;;9.79;100.00;98541.16;5110571;28;20038;-74
2022/10/31 01:04:55;;;;;;;1999.90;999.90;;;;;;;9.78;100.00;98547.69;5111083;28;20027;-74
2022/10/31 01:07:20;;;;;;;1999.90;999.90;;;;;;;9.87;100.00;98540.56;5111421;28;20042;-73
2022/10/31 01:09:45;;;;;;;1999.90;999.90;;;;;;;9.92;100.00;98532.38;5110027;28;20084;-74
2022/10/31 01:12:11;;;;;;;1999.90;999.90;;;;;;;9.81;100.00;98532.66;5111191;28;20023;-75
2022/10/31 01:14:36;;;;;;;1999.90;999.90;;;;;;;9.74;100.00;98524.78;5110964;28;20032;-74
2022/10/31 01:17:02;;;;;;;1999.90;999.90;;;;;;;9.65;100.00;98540.06;5110957;28;20118;-74
2022/10/31 01:19:27;;;;;;;1999.90;999.90;;;;;;;9.67;100.00;98535.97;5111447;28;20400;-75
2022/10/31 01:21:54;;;;;;;1999.90;999.90;;;;;;;9.74;100.00;98532.16;5111083;28;20079;-74
2022/10/31 01:24:20;;;;;;;1999.90;999.90;;;;;;;9.80;100.00;98529.13;5111045;28;20024;-73
2022/10/31 01:26:45;;;;;;;1999.90;999.90;;;;;;;9.81;100.00;98530.75;5111076;28;20122;-74
2022/10/31 01:29:11;;;;;;;1999.90;999.90;;;;;;;9.84;100.00;98529.38;5111226;28;20023;-74
2022/10/31 01:31:38;;;;;;;1999.90;999.90;;;;;;;9.84;100.00;98529.38;5110879;28;20445;-74
2022/10/31 01:34:04;;;;;;;1999.90;999.90;;;;;;;9.93;100.00;98538.66;5092622;28;20057;-73
2022/10/31 01:36:33;;;;;;;1999.90;999.90;;;;;;;9.88;100.00;98530.47;5111016;28;20035;-73
2022/10/31 01:39:01;;;;;;;1999.90;999.90;;;;;;;9.86;100.00;98535.41;5110769;28;20022;-73
2022/10/31 01:41:29;;;;;;;1999.90;999.90;;;;;;;9.86;100.00;98527.19;5111212;28;20039;-74
2022/10/31 01:43:59;;;;;;;1999.90;999.90;;;;;;;9.91;100.00;98529.91;5110964;28;20028;-74
2022/10/31 01:46:32;;;;;;;1999.90;999.90;;;;;;;9.93;100.00;98533.22;5110876;28;20034;-73
2022/10/31 01:49:02;;;;;;;1999.90;999.90;;;;;;;9.98;100.00;98524.97;5111789;28;20026;-73
2022/10/31 01:51:36;;;;;;;1999.90;999.90;;;;;;;10.02;100.00;98526.06;5111087;28;20043;-72
2022/10/31 01:54:07;;;;;;;1999.90;999.90;;;;;;;10.05;100.00;98515.41;5111650;28;20032;-74
2022/10/31 01:56:39;;;;;;;1999.90;999.90;;;;;;;10.21;100.00;98522.47;5110842;28;20035;-74
2022/10/31 01:59:08;;;;;;;1999.90;999.90;;;;;;;10.15;100.00;98520.03;5111058;28;20749;-74
2022/10/31 02:01:34;;;;;;;1999.90;999.90;;;;;;;10.17;100.00;98526.06;5115144;28;20032;-77
2022/10/31 02:03:59;;;;;;;1999.90;999.90;;;;;;;10.12;100.00;98512.34;5113713;28;20165;-74
2022/10/31 02:06:57;;;;;;;1999.90;999.90;;;;;;;10.07;100.00;98518.66;5110865;28;20028;-74
2022/10/31 02:09:24;;;;;;;1999.90;999.90;;;;;;;9.99;100.00;98515.69;5066659;28;20569;-74
2022/10/31 02:11:54;;;;;;;1999.90;999.90;;;;;;;10.03;100.00;98517.59;5097480;28;20026;-75
2022/10/31 02:14:25;;;;;;;1999.90;999.90;;;;;;;9.89;100.00;98510.25;5117079;28;20027;-75
2022/10/31 02:16:50;;;;;;;1999.90;999.90;;;;;;;9.90;100.00;98514.63;5118630;28;20042;-74
2022/10/31 02:19:40;;;;;;;1999.90;999.90;;;;;;;9.84;100.00;98515.72;5115089;28;20110;-74
2022/10/31 02:22:16;;;;;;;1999.90;999.90;;;;;;;9.80;100.00;98512.75;5114352;28;20040;-75
2022/10/31 02:25:07;;;;;;;1999.90;999.90;;;;;;;9.89;100.00;98507.53;5114915;28;20115;-74
2022/10/31 02:27:56;;;;;;;1999.90;999.90;;;;;;;9.88;100.00;98509.44;5057953;28;20102;-74
2022/10/31 02:30:35;;;;;;;1999.90;999.90;;;;;;;9.90;100.00;98517.38;5078780;28;20119;-74
2022/10/31 02:33:20;;;;;;;1999.90;999.90;;;;;;;9.98;100.00;98514.88;5115119;28;20039;-75
2022/10/31 02:35:54;;;;;;;1999.90;999.90;;;;;;;10.05;100.00;98517.31;5080257;28;20019;-74
2022/10/31 02:38:32;;;;;;;1999.90;999.90;;;;;;;10.05;100.00;98522.78;5095740;28;20122;-74
2022/10/31 02:41:34;;;;;;;1999.90;999.90;;;;;;;10.04;100.00;98513.75;5114176;28;20020;-74
2022/10/31 02:44:39;;;;;;;1999.90;999.90;;;;;;;10.09;100.00;98516.47;5088108;28;20426;-75
2022/10/31 02:47:11;;;;;;;1999.90;999.90;;;;;;;10.12;100.00;98513.19;5081869;28;20040;-74
2022/10/31 02:49:44;;;;;;;1999.90;999.90;;;;;;;10.19;100.00;98521.13;5108473;28;20035;-75
2022/10/31 02:52:20;;;;;;;1999.90;999.90;;;;;;;10.17;100.00;98518.69;5113405;28;20040;-74
2022/10/31 02:54:47;;;;;;;1999.90;999.90;;;;;;;10.05;100.00;98517.31;5113589;28;20399;-76
2022/10/31 02:57:14;;;;;;;1999.90;999.90;;;;;;;10.04;100.00;98519.22;5113468;28;20035;-75
2022/10/31 02:59:48;;;;;;;1999.90;999.90;;;;;;;9.99;100.00;98518.44;5113510;28;20055;-75
2022/10/31 03:02:34;;;;;;;1999.90;999.90;;;;;;;9.93;100.00;98516.81;5094555;28;20024;-75
2022/10/31 03:05:24;;;;;;;1999.90;999.90;;;;;;;9.90;100.00;98512.69;5092734;28;20412;-75
2022/10/31 03:08:25;;;;;;;1999.90;999.90;;;;;;;9.92;100.00;98516.00;5092644;28;20031;-76
2022/10/31 03:10:57;;;;;;;1999.90;999.90;;;;;;;9.88;100.00;98519.53;5057419;28;20508;-75
2022/10/31 03:13:46;;;;;;;1999.90;999.90;;;;;;;9.87;100.00;98523.34;5092630;28;20031;-75
2022/10/31 03:16:48;;;;;;;1999.90;999.90;;;;;;;9.81;100.00;98524.47;5092798;28;20036;-75
2022/10/31 03:19:16;;;;;;;1999.90;999.90;;;;;;;9.78;100.00;98516.81;5066116;28;20089;-75
2022/10/31 03:21:45;;;;;;;1999.90;999.90;;;;;;;9.75;100.00;98515.47;5092685;28;20118;-74
2022/10/31 03:24:13;;;;;;;1999.90;999.90;;;;;;;9.74;100.00;98519.31;5092545;28;20031;-75
2022/10/31 03:26:45;;;;;;;1999.90;999.90;;;;;;;9.73;100.00;98528.59;5073251;28;20028;-74
2022/10/31 03:29:14;;;;;;;1999.90;999.90;;;;;;;9.72;100.00;98526.13;5074388;28;20493;-74
2022/10/31 03:31:51;;;;;;;1999.90;999.90;;;;;;;9.58;100.00;98526.72;5092409;28;20035;-74
2022/10/31 03:34:19;;;;;;;1999.90;999.90;;;;;;;9.65;100.00;98538.16;5092467;28;20480;-75
2022/10/31 03:36:46;;;;;;;1999.90;999.90;;;;;;;9.67;100.00;98525.06;5076003;28;20074;-75
2022/10/31 03:39:15;;;;;;;1999.90;999.90;;;;;;;9.65;100.00;98538.16;5093176;28;20062;-75
2022/10/31 03:41:45;;;;;;;1999.90;999.90;;;;;;;9.64;100.00;98533.81;5112803;28;20071;-74
2022/10/31 03:44:18;;;;;;;1999.90;999.90;;;;;;;9.61;100.00;98531.63;5112787;28;20077;-76
2022/10/31 03:46:44;;;;;;;1999.90;999.90;;;;;;;9.65;100.00;98538.16;5093632;28;20216;-75
2022/10/31 03:49:11;;;;;;;1999.90;999.90;;;;;;;9.64;100.00;98542.00;5094310;28;20120;-75
2022/10/31 03:51:44;;;;;;;1999.90;999.90;;;;;;;9.65;100.00;98531.84;5114013;28;20483;-75
2022/10/31 03:54:20;;;;;;;1999.90;999.90;;;;;;;9.66;100.00;98544.44;5094290;28;20076;-75
2022/10/31 03:56:57;;;;;;;1999.90;999.90;;;;;;;9.68;100.00;98539.50;5112201;28;20066;-75
2022/10/31 03:59:29;;;;;;;1999.90;999.90;;;;;;;9.65;100.00;98542.78;5093928;28;20036;-75
2022/10/31 04:01:59;;;;;;;1999.90;999.90;;;;;;;9.64;100.00;98536.53;5107489;28;20032;-75
2022/10/31 04:04:27;;;;;;;1999.90;999.90;;;;;;;9.66;100.00;98545.25;5091573;28;20054;-75
2022/10/31 04:06:55;;;;;;;1999.90;999.90;;;;;;;9.58;100.00;98545.81;5073656;28;20485;-75
2022/10/31 04:09:22;;;;;;;1999.90;999.90;;;;;;;9.42;100.00;98537.91;5092383;28;20077;-75
2022/10/31 04:11:54;;;;;;;1999.90;999.90;;;;;;;9.42;100.00;98549.66;5096987;28;20492;-77
2022/10/31 04:14:21;;;;;;;1999.90;999.90;;;;;;;9.39;100.00;98547.47;5095224;28;20022;-74
2022/10/31 04:16:48;;;;;;;1999.90;999.90;;;;;;;9.43;100.00;98539.56;5073947;28;20089;-76
2022/10/31 04:19:14;;;;;;;1999.90;999.90;;;;;;;9.42;100.00;98549.66;5092154;28;20358;-75
2022/10/31 04:21:43;;;;;;;1999.90;999.90;;;;;;;9.39;100.00;98550.19;5092060;28;20035;-74
2022/10/31 04:24:08;;;;;;;1999.90;999.90;;;;;;;9.35;100.00;98538.19;5091926;28;20062;-75
2022/10/31 04:26:34;;;;;;;1999.90;999.90;;;;;;;9.34;100.00;98543.88;5093620;28;20051;-75
2022/10/31 04:28:59;;;;;;;1999.90;999.90;;;;;;;9.37;100.00;98541.44;5097014;28;20137;-78
2022/10/31 04:31:24;;;;;;;1999.90;999.90;;;;;;;9.37;100.00;98544.16;5097487;28;20024;-77
2022/10/31 04:33:50;;;;;;;1999.90;999.90;;;;;;;9.39;100.00;98549.38;5095175;28;20111;-75
2022/10/31 04:36:15;;;;;;;1999.90;999.90;;;;;;;9.37;100.00;98551.53;5091699;28;20040;-75
2022/10/31 04:38:40;;;;;;;1999.90;999.90;;;;;;;9.38;100.00;98548.53;5091508;28;20086;-75
2022/10/31 04:41:06;;;;;;;1999.90;999.90;;;;;;;9.27;100.00;98541.44;5091396;28;20016;-74
2022/10/31 04:43:31;;;;;;;1999.90;999.90;;;;;;;9.25;100.00;98546.34;5091444;28;20032;-74
2022/10/31 04:45:56;;;;;;;1999.90;999.90;;;;;;;9.20;100.00;98546.34;5091610;28;20028;-74
2022/10/31 04:48:21;;;;;;;1999.90;999.90;;;;;;;9.14;100.00;98544.72;5091372;28;20032;-75
2022/10/31 04:50:47;;;;;;;1999.90;999.90;;;;;;;9.05;100.00;98538.16;5091345;28;20032;-74
2022/10/31 04:53:12;;;;;;;1999.90;999.90;;;;;;;8.97;100.00;98538.69;5091216;28;20046;-75
2022/10/31 04:55:37;;;;;;;1999.90;999.90;;;;;;;8.95;100.00;98551.78;5090961;28;20160;-74
2022/10/31 04:58:03;;;;;;;1999.90;999.90;;;;;;;8.89;100.00;98544.69;5091033;28;20115;-75
2022/10/31 05:00:29;;;;;;;1999.90;999.90;;;;;;;8.74;100.00;98542.72;5091378;28;20409;-75
2022/10/31 05:02:56;;;;;;;1999.90;999.90;;;;;;;8.81;100.00;98543.28;5073037;28;20397;-74
2022/10/31 05:05:24;;;;;;;1999.90;999.90;;;;;;;8.87;100.00;98546.84;5090784;28;20047;-74
2022/10/31 05:07:52;;;;;;;1999.90;999.90;;;;;;;8.92;100.00;98549.59;5090853;28;20135;-74
2022/10/31 05:10:21;;;;;;;1999.90;999.90;;;;;;;8.82;100.00;98546.84;5090801;28;20111;-75
2022/10/31 05:12:52;;;;;;;1999.90;999.90;;;;;;;8.81;100.00;98553.38;5091115;28;20029;-76
2022/10/31 05:15:19;;;;;;;1999.90;999.90;;;;;;;8.86;100.00;98545.22;5091164;28;20024;-75
2022/10/31 05:17:44;;;;;;;1999.90;999.90;;;;;;;8.93;100.00;98545.75;5090972;28;20111;-75
2022/10/31 05:20:12;;;;;;;1999.90;999.90;;;;;;;8.87;100.00;98546.84;5090868;28;20112;-74
2022/10/31 05:22:42;;;;;;;1999.90;999.90;;;;;;;8.94;100.00;98552.84;5098051;28;20031;-75
2022/10/31 05:25:08;;;;;;;1999.90;999.90;;;;;;;8.98;100.00;98553.97;5110977;28;20484;-74
2022/10/31 05:27:33;;;;;;;1999.90;999.90;;;;;;;9.00;100.00;98551.78;5110706;28;20076;-74
2022/10/31 05:29:59;;;;;;;1999.90;999.90;;;;;;;9.05;100.00;98546.34;5111108;28;20035;-74
2022/10/31 05:32:24;;;;;;;1999.90;999.90;;;;;;;9.03;100.00;98546.59;5111314;28;20026;-75
2022/10/31 05:34:49;;;;;;;1999.90;999.90;;;;;;;9.11;100.00;98546.06;5110914;28;20024;-75
2022/10/31 05:37:15;;;;;;;1999.90;999.90;;;;;;;9.05;100.00;98538.16;5111079;28;20571;-75
2022/10/31 05:39:40;;;;;;;1999.90;999.90;;;;;;;9.08;100.00;98543.06;5111039;28;20047;-74
2022/10/31 05:42:05;;;;;;;1999.90;999.90;;;;;;;9.10;100.00;98536.25;5111294;28;20076;-77
2022/10/31 05:44:30;;;;;;;1999.90;999.90;;;;;;;9.14;100.00;98542.00;5077407;28;20032;-75
2022/10/31 05:46:56;;;;;;;1999.90;999.90;;;;;;;9.00;100.00;98549.06;5075895;28;20062;-74
2022/10/31 05:49:22;;;;;;;1999.90;999.90;;;;;;;9.11;100.00;98553.44;5104610;28;20032;-75
2022/10/31 05:51:48;;;;;;;1999.90;999.90;;;;;;;9.04;100.00;98544.69;5094617;28;20024;-75
2022/10/31 05:54:13;;;;;;;1999.90;999.90;;;;;;;9.15;100.00;98552.63;5095576;28;20024;-75
2022/10/31 05:56:38;;;;;;;1999.90;999.90;;;;;;;9.12;100.00;98550.44;5095477;28;20415;-75
2022/10/31 05:59:03;;;;;;;1999.90;999.90;;;;;;;9.16;100.00;98553.44;5095412;28;20020;-74
2022/10/31 06:01:29;;;;;;;1999.90;999.90;;;;;;;9.25;100.00;98553.72;5101665;28;20392;-74
2022/10/31 06:03:54;;;;;;;1999.90;999.90;;;;;;;9.27;100.00;98551.56;5115495;28;20048;-74
2022/10/31 06:06:19;;;;;;;1999.90;999.90;;;;;;;9.18;100.00;98553.97;5114471;28;20059;-74
2022/10/31 06:08:45;;;;;;;1999.90;999.90;;;;;;;9.24;100.00;98558.34;5096220;28;20511;-76
2022/10/31 06:11:10;;;;;;;1999.90;999.90;;;;;;;9.27;100.00;98554.28;5114691;28;20475;-75
2022/10/31 06:13:35;;;;;;;1999.90;999.90;;;;;;;9.34;100.00;98563.81;5114724;28;20531;-75
2022/10/31 06:16:01;;;;;;;1999.90;999.90;;;;;;;9.38;100.00;98569.56;5115585;28;20492;-75
2022/10/31 06:18:26;;;;;;;1999.90;999.90;;;;;;;9.31;100.00;98563.53;5116430;28;20482;-78
2022/10/31 06:20:52;;;;;;;1999.90;999.90;;;;;;;9.38;100.00;98575.03;5116948;28;20028;-74
2022/10/31 06:23:17;;;;;;;1999.90;999.90;;;;;;;9.47;100.00;98574.22;5114156;28;20435;-75
2022/10/31 06:25:42;;;;;;;1999.90;999.90;;;;;;;9.49;100.00;98565.75;5114111;28;20046;-75
2022/10/31 06:28:08;;;;;;;1999.90;999.90;;;;;;;9.44;100.00;98572.03;5117968;28;20059;-73
2022/10/31 06:30:33;;;;;;;1999.90;999.90;;;;;;;9.48;100.00;98575.84;5114089;28;20382;-73
2022/10/31 06:33:03;;;;;;;1999.90;999.90;;;;;;;9.52;100.00;98567.94;5114142;28;20031;-73
2022/10/31 06:35:28;;;;;;;1999.90;999.90;;;;;;;9.51;100.00;98578.03;5114243;28;20034;-74
2022/10/31 06:37:54;;;;;;;1999.90;999.90;;;;;;;9.46;100.00;98577.22;5108137;28;20024;-74
2022/10/31 06:40:20;;;;;;;1999.90;999.90;;;;;;;9.49;100.00;98582.94;5093569;28;20028;-74
2022/10/31 06:42:45;;;;;;;1999.90;999.90;;;;;;;9.46;100.00;98582.69;5093589;28;20028;-74
2022/10/31 06:45:11;;;;;;;1999.90;999.90;;;;;;;9.52;100.00;98582.41;5094530;28;20077;-73
2022/10/31 06:47:36;;;;;;;1999.90;999.90;;;;;;;9.71;100.00;98581.88;5115868;28;20444;-72
2022/10/31 06:50:01;;;;;;;1999.90;999.90;;;;;;;9.69;100.00;98582.94;5115619;28;20110;-77
2022/10/31 06:52:27;;;;;;;1999.90;999.90;;;;;;;9.83;100.00;98593.31;5120454;28;20088;-74
2022/10/31 06:54:52;;;;;;;1999.90;999.90;;;;;;;9.89;100.00;98589.50;5119216;28;20061;-74
2022/10/31 06:57:17;;;;;;;1999.90;999.90;;;;;;;9.87;100.00;98591.66;5117562;28;20020;-74
2022/10/31 06:59:43;;;;;;;1999.90;999.90;;;;;;;10.09;100.00;98594.91;5113794;28;20068;-74
2022/10/31 07:02:11;;;;;;;1999.90;999.90;;;;;;;10.12;100.00;98597.09;5112495;28;20020;-74
2022/10/31 07:04:37;;;;;;;1999.90;999.90;;;;;;;10.03;100.00;98590.56;5113572;28;20043;-74
2022/10/31 07:07:02;;;;;;;1999.90;999.90;;;;;;;10.11;100.00;98590.00;5113422;28;20039;-74
2022/10/31 07:09:28;;;;;;;1999.90;999.90;;;;;;;10.11;100.00;98601.75;5113328;28;20019;-73
2022/10/31 07:11:53;;;;;;;1999.90;999.90;;;;;;;10.17;100.00;98599.88;5113329;28;20036;-75
2022/10/31 07:14:18;;;;;;;1999.90;999.90;;;;;;;10.22;100.00;98599.84;5113220;28;20100;-75
2022/10/31 07:16:48;;;;;;;1999.90;999.90;;;;;;;10.15;100.00;98591.09;5113666;28;20042;-74
2022/10/31 07:19:13;;;;;;;1999.90;999.90;;;;;;;10.16;100.00;98603.69;5113215;28;20150;-74
2022/10/31 07:21:39;;;;;;;1999.90;999.90;;;;;;;10.42;100.00;98597.06;5112929;28;20126;-74
2022/10/31 07:24:04;;;;;;;1999.90;999.90;;;;;;;10.56;100.00;98598.09;5113236;28;20019;-73
2022/10/31 07:26:29;;;;;;;1999.90;999.90;;;;;;;10.68;100.00;98606.78;5113283;28;20028;-73
2022/10/31 07:28:55;;;;;;;1999.90;999.90;;;;;;;10.71;100.00;98608.19;5115042;28;20039;-74
2022/10/31 07:31:20;;;;;;;1999.90;999.90;;;;;;;10.75;100.00;98601.84;5117288;28;20068;-77
2022/10/31 07:33:45;;;;;;;1999.90;999.90;;;;;;;11.13;100.00;98602.19;5114558;28;20019;-74
2022/10/31 07:36:11;;;;;;;1999.90;999.90;;;;;;;11.27;100.00;98609.53;5112789;28;20484;-73
2022/10/31 07:38:36;;;;;;;1999.90;999.90;;;;;;;11.27;100.00;98611.44;5101287;28;20559;-75
2022/10/31 07:41:01;;;;;;;1999.90;999.90;;;;;;;11.29;100.00;98611.97;5101875;28;20107;-73
2022/10/31 07:43:27;;;;;;;1999.90;999.90;;;;;;;11.29;100.00;98606.50;5112924;28;20485;-74
2022/10/31 07:45:53;;;;;;;1999.90;999.90;;;;;;;11.25;100.00;98610.88;5112934;28;20023;-75
2022/10/31 07:48:19;;;;;;;1999.90;999.90;;;;;;;11.24;100.00;98609.28;5113041;28;20388;-75
2022/10/31 07:50:44;;;;;;;1999.90;999.90;;;;;;;11.22;100.00;98605.97;5113133;28;20081;-75
2022/10/31 07:53:11;;;;;;;1999.90;999.90;;;;;;;11.30;100.00;98605.41;5114616;28;20472;-75
2022/10/31 07:55:37;;;;;;;1999.90;999.90;;;;;;;11.42;100.00;98607.78;5094269;28;20575;-77
2022/10/31 07:58:06;;;;;;;1999.90;999.90;;;;;;;11.37;100.00;98613.31;5092911;28;20009;-75
2022/10/31 08:00:33;;;;;;;1999.90;999.90;;;;;;;11.31;100.00;98617.97;5092218;28;20027;-76
2022/10/31 08:03:03;;;;;;;1999.90;999.90;;;;;;;11.41;100.00;98612.44;5092323;28;20043;-75
2022/10/31 08:05:30;;;;;;;1999.90;999.90;;;;;;;11.57;100.00;98611.22;5091430;28;20480;-75
2022/10/31 08:07:56;;;;;;;1999.90;999.90;;;;;;;11.76;100.00;98606.72;5092227;28;20078;-75
2022/10/31 08:10:22;;;;;;;1999.90;999.90;;;;;;;11.77;100.00;98611.09;5091751;28;20062;-74
2022/10/31 08:12:55;;;;;;;1999.90;999.90;;;;;;;11.79;100.00;98606.16;5073467;28;20016;-75
2022/10/31 08:15:20;;;;;;;1999.90;999.90;;;;;;;12.23;100.00;98605.19;5091834;28;20036;-74
2022/10/31 08:17:45;;;;;;;1999.90;999.90;;;;;;;12.28;100.00;98607.88;5092637;28;20036;-75
2022/10/31 08:20:11;;;;;;;1999.90;999.90;;;;;;;12.72;100.00;98611.22;5092385;28;20036;-75
2022/10/31 08:22:36;;;;;;;1999.90;999.90;;;;;;;13.32;100.00;98606.06;5092841;28;20020;-74
2022/10/31 08:25:02;;;;;;;1999.90;999.90;;;;;;;13.78;100.00;98606.97;5092423;28;20024;-75
2022/10/31 08:27:27;;;;;;;1999.90;999.90;;;;;;;13.77;100.00;98607.28;5092206;28;20097;-74
2022/10/31 08:29:53;;;;;;;1999.90;999.90;;;;;;;14.54;100.00;98602.91;5092886;28;20035;-75
2022/10/31 08:32:18;;;;;;;1999.90;999.90;;;;;;;15.66;100.00;98607.66;5092725;28;20032;-76
2022/10/31 08:34:43;;;;;;;1999.90;999.90;;;;;;;16.89;100.00;98613.25;5097382;28;20063;-75
2022/10/31 08:37:09;;;;;;;1999.90;999.90;;;;;;;18.26;100.00;98614.50;5096109;28;20035;-74
2022/10/31 08:39:34;;;;;;;1999.90;999.90;;;;;;;20.65;100.00;98622.41;5091548;28;20035;-74
2022/10/31 08:41:59;;;;;;;1999.90;999.90;;;;;;;21.63;83.45;98624.03;5101728;28;20032;-76
2022/10/31 08:44:24;;;;;;;1999.90;999.90;;;;;;;22.15;77.17;98624.84;5101590;28;20540;-76
2022/10/31 08:46:50;;;;;;;1999.90;999.90;;;;;;;22.12;73.65;98619.97;5101870;28;20031;-76
2022/10/31 08:49:15;;;;;;;1999.90;999.90;;;;;;;22.10;72.46;98625.09;5106296;28;20119;-75
2022/10/31 08:51:40;;;;;;;1999.90;999.90;;;;;;;21.86;72.75;98627.94;5110809;28;20115;-73
2022/10/31 08:54:06;;;;;;;1999.90;999.90;;;;;;;22.18;72.38;98617.72;5118783;28;20028;-79
2022/10/31 08:56:31;;;;;;;1999.90;999.90;;;;;;;21.84;73.98;98619.13;5124336;28;20027;-81
2022/10/31 08:58:56;;;;;;;1999.90;999.90;;;;;;;22.05;73.52;98614.22;5098998;28;20024;-75
2022/10/31 09:01:22;;;;;;;1999.90;999.90;;;;;;;22.93;67.93;98616.63;5114822;28;20031;-75
2022/10/31 09:03:47;;;;;;;1999.90;999.90;;;;;;;23.19;65.72;98624.44;5111515;28;20099;-73
2022/10/31 09:06:12;;;;;;;1999.90;999.90;;;;;;;24.00;62.81;98623.53;5112562;28;20051;-76
2022/10/31 09:08:38;;;;;;;1999.90;999.90;;;;;;;22.68;65.58;98619.97;5104148;28;20177;-74
2022/10/31 09:11:04;;;;;;;1999.90;999.90;;;;;;;21.72;69.76;98616.38;5093639;28;20035;-74
2022/10/31 09:13:29;;;;;;;1999.90;999.90;;;;;;;21.57;70.45;98609.56;5091556;28;20036;-75
2022/10/31 09:15:56;;;;;;;1999.90;999.90;;;;;;;21.68;71.40;98609.88;5090861;28;20024;-74
2022/10/31 09:18:23;;;;;;;1999.90;999.90;;;;;;;21.84;69.16;98607.97;5090861;28;20055;-74
2022/10/31 09:20:50;;;;;;;1999.90;999.90;;;;;;;21.98;69.55;98607.63;5089316;28;20039;-75
2022/10/31 09:23:19;;;;;;;1999.90;999.90;;;;;;;22.42;67.47;98603.69;5090848;28;20051;-75
2022/10/31 09:25:45;;;;;;;1999.90;999.90;;;;;;;22.40;66.40;98609.59;5090431;28;20460;-74
2022/10/31 09:28:14;;;;;;;1999.90;999.90;;;;;;;22.08;66.90;98605.16;5092842;28;20084;-73
2022/10/31 09:30:40;;;;;;;1999.90;999.90;;;;;;;22.43;66.63;98611.69;5110940;28;20113;-74
2022/10/31 09:33:09;;;;;;;1999.90;999.90;;;;;;;22.48;64.90;98612.59;5110973;28;20024;-74
2022/10/31 09:35:35;;;;;;;1999.90;999.90;;;;;;;22.13;66.45;98604.88;5111264;28;20023;-74
2022/10/31 09:38:05;;;;;;;1999.90;999.90;;;;;;;21.88;68.32;98603.31;5111763;28;20031;-75
2022/10/31 09:40:46;;;;;;;1999.90;999.90;;;;;;;22.89;64.66;98609.34;5096926;28;20388;-75
2022/10/31 09:43:29;;;;;;;1999.90;999.90;;;;;;;23.47;60.18;98599.19;5114192;28;20111;-73
2022/10/31 09:46:13;;;;;;;1999.90;999.90;;;;;;;23.62;58.96;98603.13;5110868;28;20028;-73
2022/10/31 09:49:02;;;;;;;1999.90;999.90;;;;;;;23.71;60.29;98598.16;5110992;28;20077;-73
2022/10/31 09:52:02;;;;;;;1999.90;999.90;;;;;;;23.67;59.29;98600.84;5111058;28;20036;-75
2022/10/31 09:54:43;;;;;;;1999.90;999.90;;;;;;;24.81;54.70;98604.78;5093107;28;20036;-75
2022/10/31 09:57:14;;;;;;;1999.90;999.90;;;;;;;24.16;55.75;98603.09;5114056;28;20031;-74
2022/10/31 09:59:43;;;;;;;1999.90;999.90;;;;;;;23.10;57.56;98601.50;5111502;28;20111;-73
2022/10/31 10:02:26;;;;;;;1999.90;999.90;;;;;;;23.12;58.77;98593.56;5110502;28;20558;-73
2022/10/31 10:05:01;;;;;;;1999.90;999.90;;;;;;;23.86;55.67;98595.28;5110363;28;20047;-74
2022/10/31 10:07:32;;;;;;;1999.90;999.90;;;;;;;24.44;53.22;98589.66;5110554;28;20035;-75
2022/10/31 10:09:59;;;;;;;1999.90;999.90;;;;;;;24.36;53.35;98593.53;5094749;28;20433;-72
2022/10/31 10:12:37;;;;;;;1999.90;999.90;;;;;;;24.44;51.76;98590.47;5090505;28;20012;-74
2022/10/31 10:15:35;;;;;;;1999.90;999.90;;;;;;;24.26;53.00;98583.75;5072029;28;20400;-73
2022/10/31 10:18:27;;;;;;;1999.90;999.90;;;;;;;23.99;53.38;98579.19;5002920;28;20502;-73
2022/10/31 10:21:05;;;;;;;1999.90;999.90;;;;;;;24.88;50.87;98587.28;5092311;28;20024;-73
2022/10/31 10:23:54;;;;;;;1999.90;999.90;;;;;;;24.60;50.54;98575.56;5091510;28;20428;-71
2022/10/31 10:26:30;;;;;;;1999.90;999.90;;;;;;;24.08;51.84;98571.38;5100665;28;20031;-74
2022/10/31 10:29:14;;;;;;;1999.90;999.90;;;;;;;24.19;50.91;98580.81;5094329;28;20040;-72
2022/10/31 10:31:42;;;;;;;1999.90;999.90;;;;;;;24.24;51.36;98574.94;5109633;28;20504;-73
2022/10/31 10:34:22;;;;;;;1999.90;999.90;;;;;;;24.17;51.54;98563.59;5102721;28;20024;-73
2022/10/31 10:37:03;;;;;;;1999.90;999.90;;;;;;;24.58;50.73;98570.34;5104230;28;20051;-72
2022/10/31 10:39:51;;;;;;;1999.90;999.90;;;;;;;24.71;51.32;98565.38;5101085;28;20042;-73
2022/10/31 10:48:19;;;;;;;1999.90;999.90;;;;;;;24.64;50.79;98559.66;5098934;28;20035;-74
2022/10/31 10:50:49;;;;;;;1999.90;999.90;;;;;;;23.26;53.69;98551.22;5099881;28;20035;-73
2022/10/31 10:53:32;;;;;;;1999.90;999.90;;;;;;;23.59;53.72;98545.19;5108813;28;20015;-73
2022/10/31 10:56:27;;;;;;;1999.90;999.90;;;;;;;24.04;53.12;98536.13;5098009;28;20447;-73
2022/10/31 10:58:55;;;;;;;1999.90;999.90;;;;;;;24.84;51.81;98544.44;5098270;28;20063;-74
2022/10/31 11:01:22;;;;;;;1999.90;999.90;;;;;;;25.07;50.32;98539.59;5108668;28;20093;-74
2022/10/31 11:03:47;;;;;;;1999.90;999.90;;;;;;;24.93;50.57;98536.59;5096557;28;20039;-73
2022/10/31 11:06:22;;;;;;;1999.90;999.90;;;;;;;24.70;50.70;98541.38;5104305;28;20449;-73
2022/10/31 11:08:49;;;;;;;1999.90;999.90;;;;;;;24.43;51.73;98526.53;5104194;28;20026;-73